sensor_id;sensor_type;location;lat;lon;timestamp;P1;durP1;ratioP1;P2;durP2;ratioP2
77004;SDS011;67261;53.132;18.006;2023-03-16T12:55:16;9.60;;;5.70;;
77004;SDS011;67261;53.132;18.006;2023-03-16T12:57:44;9.20;;;5.30;;
77004;SDS011;67261;53.132;18.006;2023-03-16T13:00:16;7.60;;;3.80;;
77004;SDS011;67261;53.132;18.006;2023-03-16T13:02:48;6.60;;;2.80;;
77004;SDS011;67261;53.132;18.006;2023-03-16T13:06:14;5.90;;;2.00;;
77004;SDS011;67261;53.132;18.006;2023-03-16T13:08:40;8.30;;;3.80;;
77004;SDS011;67261;53.132;18.006;2023-03-16T13:11:13;8.10;;;5.60;;
77004;SDS011;67261;53.132;18.006;2023-03-16T13:16:40;7.50;;;4.40;;
77004;SDS011;67261;53.132;18.006;2023-03-16T13:22:01;8.30;;;4.80;;
77004;SDS011;67261;53.132;18.006;2023-03-16T13:24:37;7.40;;;4.10;;
77004;SDS011;67261;53.132;18.006;2023-03-16T13:27:32;8.10;;;4.30;;
77004;SDS011;67261;53.132;18.006;2023-03-16T13:30:00;13.10;;;8.50;;
77004;SDS011;67261;53.132;18.006;2023-03-16T13:32:43;11.90;;;6.70;;
77004;SDS011;67261;53.132;18.006;2023-03-16T13:35:16;9.90;;;6.30;;
77004;SDS011;67261;53.132;18.006;2023-03-16T13:37:45;6.70;;;5.60;;
77004;SDS011;67261;53.132;18.006;2023-03-16T13:42:53;8.10;;;4.40;;
77004;SDS011;67261;53.132;18.006;2023-03-16T13:45:30;8.30;;;5.20;;
77004;SDS011;67261;53.132;18.006;2023-03-16T13:48:00;8.60;;;3.40;;
77004;SDS011;67261;53.132;18.006;2023-03-16T13:50:31;9.20;;;4.10;;
77004;SDS011;67261;53.132;18.006;2023-03-16T13:53:09;6.60;;;3.30;;
77004;SDS011;67261;53.132;18.006;2023-03-16T13:55:43;21.00;;;9.20;;
77004;SDS011;67261;53.132;18.006;2023-03-16T13:58:31;28.60;;;11.70;;
77004;SDS011;67261;53.132;18.006;2023-03-16T14:01:03;22.40;;;12.80;;
77004;SDS011;67261;53.132;18.006;2023-03-16T14:03:32;14.30;;;9.70;;
77004;SDS011;67261;53.132;18.006;2023-03-16T14:06:03;11.10;;;7.30;;
77004;SDS011;67261;53.132;18.006;2023-03-16T14:08:32;10.70;;;7.20;;
77004;SDS011;67261;53.132;18.006;2023-03-16T14:11:00;8.60;;;5.40;;
77004;SDS011;67261;53.132;18.006;2023-03-16T14:13:32;9.90;;;5.30;;
77004;SDS011;67261;53.132;18.006;2023-03-16T14:16:12;5.50;;;2.80;;
77004;SDS011;67261;53.132;18.006;2023-03-16T14:18:47;4.70;;;1.90;;
77004;SDS011;67261;53.132;18.006;2023-03-16T14:21:23;8.30;;;4.30;;
77004;SDS011;67261;53.132;18.006;2023-03-16T14:24:04;8.20;;;4.90;;
77004;SDS011;67261;53.132;18.006;2023-03-16T14:26:43;12.50;;;7.20;;
77004;SDS011;67261;53.132;18.006;2023-03-16T14:29:28;13.60;;;6.80;;
77004;SDS011;67261;53.132;18.006;2023-03-16T14:31:57;29.70;;;12.60;;
77004;SDS011;67261;53.132;18.006;2023-03-16T14:34:35;40.50;;;18.50;;
77004;SDS011;67261;53.132;18.006;2023-03-16T14:37:06;43.40;;;17.00;;
77004;SDS011;67261;53.132;18.006;2023-03-16T14:39:40;35.00;;;16.70;;
77004;SDS011;67261;53.132;18.006;2023-03-16T14:42:26;43.80;;;20.10;;
77004;SDS011;67261;53.132;18.006;2023-03-16T14:45:08;34.90;;;16.90;;
77004;SDS011;67261;53.132;18.006;2023-03-16T14:47:41;25.60;;;14.70;;
77004;SDS011;67261;53.132;18.006;2023-03-16T14:50:18;40.70;;;20.40;;
77004;SDS011;67261;53.132;18.006;2023-03-16T14:52:52;28.70;;;12.50;;
77004;SDS011;67261;53.132;18.006;2023-03-16T14:55:22;17.00;;;7.00;;
77004;SDS011;67261;53.132;18.006;2023-03-16T14:57:59;17.60;;;8.30;;
77004;SDS011;67261;53.132;18.006;2023-03-16T15:00:29;30.60;;;16.60;;
77004;SDS011;67261;53.132;18.006;2023-03-16T15:03:16;17.00;;;8.50;;
77004;SDS011;67261;53.132;18.006;2023-03-16T15:06:41;12.00;;;7.50;;
77004;SDS011;67261;53.132;18.006;2023-03-16T15:14:31;9.20;;;4.20;;
77004;SDS011;67261;53.132;18.006;2023-03-16T15:22:00;37.80;;;16.40;;
77004;SDS011;67261;53.132;18.006;2023-03-16T15:33:47;8.10;;;4.10;;
77004;SDS011;67261;53.132;18.006;2023-03-16T15:36:28;11.70;;;6.80;;
77004;SDS011;67261;53.132;18.006;2023-03-16T15:39:53;9.80;;;5.10;;
77004;SDS011;67261;53.132;18.006;2023-03-16T15:42:53;14.30;;;6.30;;
77004;SDS011;67261;53.132;18.006;2023-03-16T15:48:43;18.00;;;7.60;;
77004;SDS011;67261;53.132;18.006;2023-03-16T15:51:52;49.90;;;22.70;;
77004;SDS011;67261;53.132;18.006;2023-03-16T15:55:18;13.00;;;6.20;;
77004;SDS011;67261;53.132;18.006;2023-03-16T15:58:09;8.80;;;5.20;;
77004;SDS011;67261;53.132;18.006;2023-03-16T16:04:53;9.90;;;4.80;;
77004;SDS011;67261;53.132;18.006;2023-03-16T16:12:42;12.10;;;5.30;;
77004;SDS011;67261;53.132;18.006;2023-03-16T16:23:17;15.40;;;8.20;;
77004;SDS011;67261;53.132;18.006;2023-03-16T16:34:39;13.10;;;5.60;;
77004;SDS011;67261;53.132;18.006;2023-03-16T16:37:53;15.30;;;6.50;;
77004;SDS011;67261;53.132;18.006;2023-03-16T16:51:55;26.20;;;12.00;;
77004;SDS011;67261;53.132;18.006;2023-03-16T16:54:31;54.20;;;30.70;;
77004;SDS011;67261;53.132;18.006;2023-03-16T16:57:27;62.00;;;28.80;;
77004;SDS011;67261;53.132;18.006;2023-03-16T17:00:24;63.00;;;30.50;;
77004;SDS011;67261;53.132;18.006;2023-03-16T17:03:08;63.60;;;26.50;;
77004;SDS011;67261;53.132;18.006;2023-03-16T17:06:21;63.50;;;28.80;;
77004;SDS011;67261;53.132;18.006;2023-03-16T17:09:40;52.80;;;27.20;;
77004;SDS011;67261;53.132;18.006;2023-03-16T17:13:25;61.80;;;28.00;;
77004;SDS011;67261;53.132;18.006;2023-03-16T17:16:05;75.40;;;31.20;;
77004;SDS011;67261;53.132;18.006;2023-03-16T17:18:42;74.90;;;32.20;;
77004;SDS011;67261;53.132;18.006;2023-03-16T17:21:17;99.00;;;40.50;;
77004;SDS011;67261;53.132;18.006;2023-03-16T17:23:46;79.30;;;32.60;;
77004;SDS011;67261;53.132;18.006;2023-03-16T17:26:23;77.70;;;34.60;;
77004;SDS011;67261;53.132;18.006;2023-03-16T17:28:58;65.10;;;26.10;;
77004;SDS011;67261;53.132;18.006;2023-03-16T17:33:15;66.00;;;30.40;;
77004;SDS011;67261;53.132;18.006;2023-03-16T17:40:15;52.80;;;27.90;;
77004;SDS011;67261;53.132;18.006;2023-03-16T17:42:51;41.90;;;21.20;;
77004;SDS011;67261;53.132;18.006;2023-03-16T17:45:25;40.50;;;19.10;;
77004;SDS011;67261;53.132;18.006;2023-03-16T17:48:04;41.40;;;18.60;;
77004;SDS011;67261;53.132;18.006;2023-03-16T17:50:38;43.40;;;18.50;;
77004;SDS011;67261;53.132;18.006;2023-03-16T17:53:08;43.10;;;22.40;;
77004;SDS011;67261;53.132;18.006;2023-03-16T17:55:37;42.40;;;20.60;;
77004;SDS011;67261;53.132;18.006;2023-03-16T17:58:15;44.70;;;22.30;;
77004;SDS011;67261;53.132;18.006;2023-03-16T18:03:26;50.70;;;23.30;;
77004;SDS011;67261;53.132;18.006;2023-03-16T18:05:53;69.70;;;31.40;;
77004;SDS011;67261;53.132;18.006;2023-03-16T18:08:25;67.50;;;34.90;;
77004;SDS011;67261;53.132;18.006;2023-03-16T18:11:03;74.50;;;30.50;;
77004;SDS011;67261;53.132;18.006;2023-03-16T18:13:38;106.20;;;53.30;;
77004;SDS011;67261;53.132;18.006;2023-03-16T18:16:07;113.10;;;60.10;;
77004;SDS011;67261;53.132;18.006;2023-03-16T18:18:42;74.40;;;40.30;;
77004;SDS011;67261;53.132;18.006;2023-03-16T18:21:19;74.00;;;35.60;;
77004;SDS011;67261;53.132;18.006;2023-03-16T18:23:49;76.90;;;35.00;;
77004;SDS011;67261;53.132;18.006;2023-03-16T18:26:23;76.70;;;39.40;;
77004;SDS011;67261;53.132;18.006;2023-03-16T18:28:54;86.60;;;39.60;;
77004;SDS011;67261;53.132;18.006;2023-03-16T18:31:23;86.30;;;40.40;;
77004;SDS011;67261;53.132;18.006;2023-03-16T18:33:57;79.20;;;39.40;;
77004;SDS011;67261;53.132;18.006;2023-03-16T18:36:34;94.80;;;40.10;;
77004;SDS011;67261;53.132;18.006;2023-03-16T18:39:04;135.30;;;60.30;;
77004;SDS011;67261;53.132;18.006;2023-03-16T18:41:44;133.40;;;68.80;;
77004;SDS011;67261;53.132;18.006;2023-03-16T18:44:16;102.00;;;46.70;;
77004;SDS011;67261;53.132;18.006;2023-03-16T18:46:44;90.90;;;40.40;;
77004;SDS011;67261;53.132;18.006;2023-03-16T18:49:26;95.80;;;43.80;;
77004;SDS011;67261;53.132;18.006;2023-03-16T18:52:00;101.80;;;47.40;;
77004;SDS011;67261;53.132;18.006;2023-03-16T18:54:29;118.90;;;49.90;;
77004;SDS011;67261;53.132;18.006;2023-03-16T18:57:04;114.40;;;51.70;;
77004;SDS011;67261;53.132;18.006;2023-03-16T18:59:41;96.50;;;41.00;;
77004;SDS011;67261;53.132;18.006;2023-03-16T19:02:16;91.30;;;42.80;;
77004;SDS011;67261;53.132;18.006;2023-03-16T19:04:55;94.80;;;41.50;;
77004;SDS011;67261;53.132;18.006;2023-03-16T19:07:32;99.40;;;46.30;;
77004;SDS011;67261;53.132;18.006;2023-03-16T19:13:00;97.80;;;42.40;;
77004;SDS011;67261;53.132;18.006;2023-03-16T19:15:29;121.90;;;53.70;;
77004;SDS011;67261;53.132;18.006;2023-03-16T19:18:00;113.00;;;49.70;;
77004;SDS011;67261;53.132;18.006;2023-03-16T19:20:29;148.40;;;69.20;;
77004;SDS011;67261;53.132;18.006;2023-03-16T19:25:53;126.20;;;51.00;;
77004;SDS011;67261;53.132;18.006;2023-03-16T19:28:30;122.00;;;47.60;;
77004;SDS011;67261;53.132;18.006;2023-03-16T19:31:06;126.00;;;52.10;;
77004;SDS011;67261;53.132;18.006;2023-03-16T19:33:40;110.30;;;47.50;;
77004;SDS011;67261;53.132;18.006;2023-03-16T19:36:12;110.20;;;44.30;;
77004;SDS011;67261;53.132;18.006;2023-03-16T19:38:47;134.20;;;51.10;;
77004;SDS011;67261;53.132;18.006;2023-03-16T19:43:49;100.10;;;45.40;;
77004;SDS011;67261;53.132;18.006;2023-03-16T19:46:18;94.10;;;41.60;;
77004;SDS011;67261;53.132;18.006;2023-03-16T19:48:48;102.00;;;43.10;;
77004;SDS011;67261;53.132;18.006;2023-03-16T19:51:18;54.70;;;25.60;;
77004;SDS011;67261;53.132;18.006;2023-03-16T19:53:48;33.50;;;12.90;;
77004;SDS011;67261;53.132;18.006;2023-03-16T19:58:47;37.00;;;16.60;;
77004;SDS011;67261;53.132;18.006;2023-03-16T20:01:18;41.10;;;18.50;;
77004;SDS011;67261;53.132;18.006;2023-03-16T20:03:49;51.20;;;22.40;;
77004;SDS011;67261;53.132;18.006;2023-03-16T20:06:19;55.30;;;26.50;;
77004;SDS011;67261;53.132;18.006;2023-03-16T20:08:49;46.40;;;23.10;;
77004;SDS011;67261;53.132;18.006;2023-03-16T20:13:50;48.90;;;25.30;;
77004;SDS011;67261;53.132;18.006;2023-03-16T20:16:23;48.80;;;24.10;;
77004;SDS011;67261;53.132;18.006;2023-03-16T20:18:55;43.70;;;22.30;;
77004;SDS011;67261;53.132;18.006;2023-03-16T20:21:26;48.60;;;23.60;;
77004;SDS011;67261;53.132;18.006;2023-03-16T20:23:55;48.60;;;22.50;;
77004;SDS011;67261;53.132;18.006;2023-03-16T20:26:24;49.10;;;21.60;;
77004;SDS011;67261;53.132;18.006;2023-03-16T20:28:59;48.00;;;24.50;;
77004;SDS011;67261;53.132;18.006;2023-03-16T20:31:28;56.70;;;29.10;;
77004;SDS011;67261;53.132;18.006;2023-03-16T20:34:02;49.70;;;24.90;;
77004;SDS011;67261;53.132;18.006;2023-03-16T20:36:30;34.70;;;16.40;;
77004;SDS011;67261;53.132;18.006;2023-03-16T20:38:57;41.50;;;21.40;;
77004;SDS011;67261;53.132;18.006;2023-03-16T20:41:25;45.50;;;20.80;;
77004;SDS011;67261;53.132;18.006;2023-03-16T20:43:57;51.40;;;22.50;;
77004;SDS011;67261;53.132;18.006;2023-03-16T20:46:28;51.10;;;22.70;;
77004;SDS011;67261;53.132;18.006;2023-03-16T20:48:57;41.80;;;18.00;;
77004;SDS011;67261;53.132;18.006;2023-03-16T20:51:26;49.10;;;22.60;;
77004;SDS011;67261;53.132;18.006;2023-03-16T20:53:54;45.40;;;18.90;;
77004;SDS011;67261;53.132;18.006;2023-03-16T20:56:23;39.90;;;17.80;;
77004;SDS011;67261;53.132;18.006;2023-03-16T20:58:52;41.80;;;18.10;;
77004;SDS011;67261;53.132;18.006;2023-03-16T21:01:21;37.00;;;13.70;;
77004;SDS011;67261;53.132;18.006;2023-03-16T21:03:51;29.50;;;13.30;;
77004;SDS011;67261;53.132;18.006;2023-03-16T21:06:29;26.70;;;12.80;;
77004;SDS011;67261;53.132;18.006;2023-03-16T21:08:58;38.10;;;15.50;;
77004;SDS011;67261;53.132;18.006;2023-03-16T21:14:04;39.00;;;15.50;;
77004;SDS011;67261;53.132;18.006;2023-03-16T21:17:04;31.80;;;15.70;;
77004;SDS011;67261;53.132;18.006;2023-03-16T21:19:36;34.90;;;16.30;;
77004;SDS011;67261;53.132;18.006;2023-03-16T21:22:22;36.40;;;16.90;;
77004;SDS011;67261;53.132;18.006;2023-03-16T21:24:52;30.90;;;15.30;;
77004;SDS011;67261;53.132;18.006;2023-03-16T21:27:21;35.30;;;14.40;;
77004;SDS011;67261;53.132;18.006;2023-03-16T21:29:52;36.50;;;15.90;;
77004;SDS011;67261;53.132;18.006;2023-03-16T21:32:21;31.40;;;15.70;;
77004;SDS011;67261;53.132;18.006;2023-03-16T21:34:53;40.70;;;18.20;;
77004;SDS011;67261;53.132;18.006;2023-03-16T21:37:22;36.20;;;19.30;;
77004;SDS011;67261;53.132;18.006;2023-03-16T21:39:53;60.00;;;23.30;;
77004;SDS011;67261;53.132;18.006;2023-03-16T21:42:21;48.80;;;18.90;;
77004;SDS011;67261;53.132;18.006;2023-03-16T21:44:48;41.00;;;18.30;;
77004;SDS011;67261;53.132;18.006;2023-03-16T21:47:22;41.60;;;17.30;;
77004;SDS011;67261;53.132;18.006;2023-03-16T21:49:52;44.50;;;18.30;;
77004;SDS011;67261;53.132;18.006;2023-03-16T21:52:24;37.50;;;15.80;;
77004;SDS011;67261;53.132;18.006;2023-03-16T21:54:54;47.90;;;16.90;;
77004;SDS011;67261;53.132;18.006;2023-03-16T21:57:22;56.00;;;21.90;;
77004;SDS011;67261;53.132;18.006;2023-03-16T21:59:50;75.30;;;25.30;;
77004;SDS011;67261;53.132;18.006;2023-03-16T22:02:19;61.30;;;23.00;;
77004;SDS011;67261;53.132;18.006;2023-03-16T22:07:57;84.10;;;29.90;;
77004;SDS011;67261;53.132;18.006;2023-03-16T22:10:27;97.30;;;32.30;;
77004;SDS011;67261;53.132;18.006;2023-03-16T22:12:57;103.90;;;36.60;;
77004;SDS011;67261;53.132;18.006;2023-03-16T22:15:24;104.40;;;35.70;;
77004;SDS011;67261;53.132;18.006;2023-03-16T22:17:53;84.00;;;30.60;;
77004;SDS011;67261;53.132;18.006;2023-03-16T22:20:24;104.00;;;33.80;;
77004;SDS011;67261;53.132;18.006;2023-03-16T22:22:55;87.10;;;31.00;;
77004;SDS011;67261;53.132;18.006;2023-03-16T22:25:24;54.50;;;21.70;;
77004;SDS011;67261;53.132;18.006;2023-03-16T22:27:52;54.60;;;22.30;;
77004;SDS011;67261;53.132;18.006;2023-03-16T22:30:21;46.70;;;22.10;;
77004;SDS011;67261;53.132;18.006;2023-03-16T22:32:54;50.60;;;20.50;;
77004;SDS011;67261;53.132;18.006;2023-03-16T22:35:33;44.50;;;20.00;;
77004;SDS011;67261;53.132;18.006;2023-03-16T22:38:03;41.10;;;21.30;;
77004;SDS011;67261;53.132;18.006;2023-03-16T22:40:34;44.50;;;19.20;;
77004;SDS011;67261;53.132;18.006;2023-03-16T22:43:14;47.20;;;20.40;;
77004;SDS011;67261;53.132;18.006;2023-03-16T22:45:44;50.50;;;20.10;;
77004;SDS011;67261;53.132;18.006;2023-03-16T22:48:21;53.40;;;22.20;;
77004;SDS011;67261;53.132;18.006;2023-03-16T22:50:50;46.80;;;21.90;;
77004;SDS011;67261;53.132;18.006;2023-03-16T22:53:19;47.00;;;23.60;;
77004;SDS011;67261;53.132;18.006;2023-03-16T22:55:52;41.30;;;20.50;;
77004;SDS011;67261;53.132;18.006;2023-03-16T22:58:39;41.50;;;18.50;;
77004;SDS011;67261;53.132;18.006;2023-03-16T23:01:16;37.30;;;17.70;;
77004;SDS011;67261;53.132;18.006;2023-03-16T23:03:46;42.90;;;17.20;;
77004;SDS011;67261;53.132;18.006;2023-03-16T23:06:16;37.10;;;17.60;;
77004;SDS011;67261;53.132;18.006;2023-03-16T23:08:49;44.90;;;20.60;;
77004;SDS011;67261;53.132;18.006;2023-03-16T23:11:20;39.90;;;19.90;;
77004;SDS011;67261;53.132;18.006;2023-03-16T23:13:49;45.10;;;20.30;;
77004;SDS011;67261;53.132;18.006;2023-03-16T23:16:22;52.70;;;21.80;;
77004;SDS011;67261;53.132;18.006;2023-03-16T23:18:51;51.60;;;22.60;;
77004;SDS011;67261;53.132;18.006;2023-03-16T23:21:20;59.00;;;24.80;;
77004;SDS011;67261;53.132;18.006;2023-03-16T23:23:50;57.90;;;23.80;;
77004;SDS011;67261;53.132;18.006;2023-03-16T23:26:20;66.40;;;25.90;;
77004;SDS011;67261;53.132;18.006;2023-03-16T23:28:49;53.20;;;21.90;;
77004;SDS011;67261;53.132;18.006;2023-03-16T23:31:19;46.90;;;23.40;;
77004;SDS011;67261;53.132;18.006;2023-03-16T23:33:47;44.40;;;20.80;;
77004;SDS011;67261;53.132;18.006;2023-03-16T23:36:16;44.40;;;19.30;;
77004;SDS011;67261;53.132;18.006;2023-03-16T23:38:51;43.10;;;19.90;;
77004;SDS011;67261;53.132;18.006;2023-03-16T23:41:19;41.10;;;20.40;;
77004;SDS011;67261;53.132;18.006;2023-03-16T23:43:49;42.00;;;19.80;;
77004;SDS011;67261;53.132;18.006;2023-03-16T23:46:18;43.70;;;21.20;;
77004;SDS011;67261;53.132;18.006;2023-03-16T23:48:47;34.40;;;15.70;;
77004;SDS011;67261;53.132;18.006;2023-03-16T23:51:20;39.00;;;18.10;;
77004;SDS011;67261;53.132;18.006;2023-03-16T23:53:54;43.20;;;21.70;;
77004;SDS011;67261;53.132;18.006;2023-03-16T23:56:24;38.40;;;19.30;;
77004;SDS011;67261;53.132;18.006;2023-03-16T23:58:52;43.60;;;18.60;;
